Time;durP1;ratioP1;P1;durP2;ratioP2;P2;SDS_P1;SDS_P2;PMS_P1;PMS_P2;Temp;Humidity;BMP_temperature;BMP_pressure;BME280_temperature;BME280_humidity;BME280_pressure;Samples;Min_cycle;Max_cycle;Signal;HPM_P1;HPM_P2
2022/01/25 00:31:12;;;;;;;32.25;15.55;;;;;;;;;;5034139;28;20072;-74
2022/01/25 00:33:39;;;;;;;32.22;15.80;;;;;;;;;;5035882;28;20016;-75
2022/01/25 00:36:06;;;;;;;36.83;16.27;;;;;;;;;;5050209;28;20025;-74
2022/01/25 00:38:32;;;;;;;47.70;17.15;;;;;;;;;;5017530;28;20017;-75
2022/01/25 00:40:57;;;;;;;79.22;18.35;;;;;;;;;;5049659;28;20037;-75
2022/01/25 00:43:24;;;;;;;54.72;17.15;;;;;;;;;;5051505;28;20033;-75
2022/01/25 00:45:52;;;;;;;39.72;17.23;;;;;;;;;;5033354;28;20037;-75
2022/01/25 00:48:30;;;;;;;51.97;17.83;;;;;;;;;;5034666;28;20024;-75
2022/01/25 00:51:14;;;;;;;46.97;18.42;;;;;;;;;;5051846;28;20029;-75
2022/01/25 00:53:59;;;;;;;36.57;16.53;;;;;;;;;;5050950;28;20025;-74
2022/01/25 00:56:30;;;;;;;33.90;16.08;;;;;;;;;;5049905;28;20106;-75
2022/01/25 00:58:56;;;;;;;34.40;16.23;;;;;;;;;;5033555;28;20119;-74
2022/01/25 01:01:21;;;;;;;32.53;15.35;;;;;;;;;;5015959;28;20424;-75
2022/01/25 01:03:47;;;;;;;33.22;15.57;;;;;;;;;;5051761;28;20017;-74
2022/01/25 01:06:13;;;;;;;37.22;15.35;;;;;;;;;;5033719;28;20013;-75
2022/01/25 01:08:40;;;;;;;41.55;16.83;;;;;;;;;;5049158;28;20498;-75
2022/01/25 01:11:08;;;;;;;43.50;17.30;;;;;;;;;;5051658;28;20028;-75
2022/01/25 01:13:52;;;;;;;38.22;17.17;;;;;;;;;;5049727;28;20487;-75
2022/01/25 01:32:31;;;;;;;47.72;20.65;;;;;;;;;;5048972;28;20128;-75
2022/01/25 01:38:00;;;;;;;36.75;15.90;;;;;;;;;;5051221;28;20082;-75
2022/01/25 01:40:57;;;;;;;31.35;14.75;;;;;;;;;;5049140;28;20545;-75
2022/01/25 01:48:28;;;;;;;28.48;14.02;;;;;;;;;;5051300;28;20032;-75
2022/01/25 01:51:05;;;;;;;27.13;12.82;;;;;;;;;;5051039;28;20035;-74
2022/01/25 01:53:30;;;;;;;31.73;13.63;;;;;;;;;;5033107;28;20139;-75
2022/01/25 01:55:56;;;;;;;39.53;17.33;;;;;;;;;;5047680;28;20182;-75
2022/01/25 01:58:21;;;;;;;37.58;16.58;;;;;;;;;;5050708;28;20059;-75
2022/01/25 02:00:47;;;;;;;31.50;14.95;;;;;;;;;;5047915;28;20056;-75
2022/01/25 02:03:13;;;;;;;35.22;15.02;;;;;;;;;;5048607;28;20029;-75
2022/01/25 02:05:38;;;;;;;29.70;14.02;;;;;;;;;;5031864;28;20379;-75
2022/01/25 02:08:04;;;;;;;33.35;15.27;;;;;;;;;;5049211;28;20021;-75
2022/01/25 02:10:29;;;;;;;27.80;13.77;;;;;;;;;;5047947;28;20689;-75
2022/01/25 02:12:55;;;;;;;54.75;14.40;;;;;;;;;;5050383;28;20052;-75
2022/01/25 02:15:21;;;;;;;25.52;13.18;;;;;;;;;;5031159;28;20064;-75
2022/01/25 02:23:21;;;;;;;35.20;15.88;;;;;;;;;;5030814;28;20036;-75
2022/01/25 02:25:53;;;;;;;34.58;15.27;;;;;;;;;;5048598;28;20035;-75
2022/01/25 02:28:18;;;;;;;30.52;13.32;;;;;;;;;;5026420;28;20039;-75
2022/01/25 02:30:44;;;;;;;27.92;13.48;;;;;;;;;;5030559;28;20451;-75
2022/01/25 02:33:09;;;;;;;26.40;13.00;;;;;;;;;;5050226;28;20033;-75
2022/01/25 02:35:35;;;;;;;49.17;14.25;;;;;;;;;;5049703;28;20071;-75
2022/01/25 02:38:00;;;;;;;21.70;11.68;;;;;;;;;;5030780;28;20143;-75
2022/01/25 02:40:25;;;;;;;24.17;11.88;;;;;;;;;;5058914;23;20513;-68
2022/01/25 02:42:52;;;;;;;22.48;11.50;;;;;;;;;;5050614;28;20485;-68
2022/01/25 02:45:17;;;;;;;21.30;11.25;;;;;;;;;;5038191;28;20041;-68
2022/01/25 02:50:26;;;;;;;28.15;12.55;;;;;;;;;;5038814;28;20499;-69
2022/01/25 02:52:52;;;;;;;25.00;12.07;;;;;;;;;;5057986;22;20473;-68
2022/01/25 02:55:20;;;;;;;23.40;12.27;;;;;;;;;;5050151;28;20505;-68
2022/01/25 02:57:46;;;;;;;23.70;12.00;;;;;;;;;;5050271;28;20036;-68
2022/01/25 03:00:12;;;;;;;26.02;12.80;;;;;;;;;;5032892;28;20025;-69
2022/01/25 03:02:37;;;;;;;28.13;12.00;;;;;;;;;;5033339;28;20027;-68
2022/01/25 03:05:04;;;;;;;28.30;13.13;;;;;;;;;;5051277;28;20024;-68
2022/01/25 03:07:29;;;;;;;27.83;13.13;;;;;;;;;;5033458;28;20393;-68
2022/01/25 03:09:54;;;;;;;22.63;12.20;;;;;;;;;;5051127;28;20021;-68
2022/01/25 03:12:31;;;;;;;26.05;12.60;;;;;;;;;;5016840;28;20071;-68
2022/01/25 03:15:53;;;;;;;23.35;12.20;;;;;;;;;;5034852;28;20482;-68
2022/01/25 03:17:50;;;;;;;24.38;12.98;;;;;;;;;;5040090;28;20106;-68
2022/01/25 03:21:01;;;;;;;25.15;11.30;;;;;;;;;;5034126;28;20112;-68
2022/01/25 03:23:17;;;;;;;23.75;11.82;;;;;;;;;;5025746;28;20124;-68
2022/01/25 03:25:43;;;;;;;25.08;11.82;;;;;;;;;;5033023;28;20021;-68
2022/01/25 03:28:08;;;;;;;23.25;11.73;;;;;;;;;;5033074;28;20054;-68
2022/01/25 03:30:33;;;;;;;23.65;11.70;;;;;;;;;;5049885;28;20029;-68
2022/01/25 03:32:58;;;;;;;21.67;11.15;;;;;;;;;;5050667;28;20025;-68
2022/01/25 03:35:24;;;;;;;22.33;11.48;;;;;;;;;;5050671;28;20041;-68
2022/01/25 03:37:49;;;;;;;21.00;11.80;;;;;;;;;;5032943;28;20035;-67
2022/01/25 03:40:14;;;;;;;24.75;11.43;;;;;;;;;;5016288;28;20033;-67
2022/01/25 03:42:40;;;;;;;23.65;13.82;;;;;;;;;;5050619;28;20079;-68
2022/01/25 03:45:06;;;;;;;24.73;12.38;;;;;;;;;;5016506;28;20104;-68
2022/01/25 03:47:45;;;;;;;23.17;12.68;;;;;;;;;;5033043;28;20028;-68
2022/01/25 03:50:10;;;;;;;23.85;13.15;;;;;;;;;;5034617;28;20037;-68
2022/01/25 03:52:36;;;;;;;27.05;12.85;;;;;;;;;;5032445;28;20047;-68
2022/01/25 03:55:02;;;;;;;21.13;12.00;;;;;;;;;;5050419;28;20029;-68
2022/01/25 03:57:27;;;;;;;23.17;12.30;;;;;;;;;;5032587;28;20036;-68
2022/01/25 03:59:58;;;;;;;26.63;13.73;;;;;;;;;;5050225;28;20394;-67
2022/01/25 04:02:25;;;;;;;29.20;13.07;;;;;;;;;;5015073;28;20040;-68
2022/01/25 04:04:51;;;;;;;25.02;13.30;;;;;;;;;;5032653;28;20619;-68
2022/01/25 04:07:25;;;;;;;28.05;13.25;;;;;;;;;;5032323;28;20033;-68
2022/01/25 04:09:51;;;;;;;24.50;13.10;;;;;;;;;;5033736;28;20111;-68
2022/01/25 04:12:17;;;;;;;26.08;12.68;;;;;;;;;;5050008;28;20112;-68
2022/01/25 04:14:42;;;;;;;22.20;11.85;;;;;;;;;;5032466;28;20108;-68
2022/01/25 04:17:10;;;;;;;23.15;11.55;;;;;;;;;;5050121;28;20444;-68
2022/01/25 04:19:45;;;;;;;25.50;12.60;;;;;;;;;;5032744;28;20025;-68
2022/01/25 04:27:09;;;;;;;24.38;12.57;;;;;;;;;;5033336;28;20037;-68
2022/01/25 04:29:35;;;;;;;25.45;12.63;;;;;;;;;;5015826;28;20028;-68
2022/01/25 04:32:00;;;;;;;24.73;12.43;;;;;;;;;;5049187;28;20033;-68
2022/01/25 04:34:40;;;;;;;24.58;11.23;;;;;;;;;;5015706;28;20426;-67
2022/01/25 04:55:43;;;;;;;18.85;11.02;;;;;;;;;;5034526;28;20100;-70
2022/01/25 04:58:16;;;;;;;23.65;11.45;;;;;;;;;;5037654;28;20033;-70
2022/01/25 05:00:41;;;;;;;18.90;10.55;;;;;;;;;;5047774;28;20045;-70
2022/01/25 05:03:13;;;;;;;18.90;10.07;;;;;;;;;;5032687;28;20112;-71
2022/01/25 05:05:53;;;;;;;19.08;10.50;;;;;;;;;;5045327;28;20472;-70
2022/01/25 05:08:30;;;;;;;21.98;10.52;;;;;;;;;;5032546;28;20056;-70
2022/01/25 05:11:10;;;;;;;25.08;10.35;;;;;;;;;;5035193;28;20036;-70
2022/01/25 05:16:06;;;;;;;20.95;10.68;;;;;;;;;;5039240;28;20029;-70
2022/01/25 05:18:42;;;;;;;18.40;9.60;;;;;;;;;;5034809;28;20039;-70
2022/01/25 05:23:51;;;;;;;18.80;10.57;;;;;;;;;;5023099;28;20056;-70
2022/01/25 05:26:16;;;;;;;19.05;10.07;;;;;;;;;;5051814;28;20115;-70
2022/01/25 05:28:42;;;;;;;22.85;10.55;;;;;;;;;;5038337;28;20035;-70
2022/01/25 05:31:07;;;;;;;23.77;11.48;;;;;;;;;;5031938;28;20584;-70
2022/01/25 05:33:32;;;;;;;20.65;11.23;;;;;;;;;;5054706;28;20029;-70
2022/01/25 05:35:58;;;;;;;23.70;11.57;;;;;;;;;;5052760;28;20025;-70
2022/01/25 05:38:23;;;;;;;24.00;12.35;;;;;;;;;;5039414;28;20334;-70
2022/01/25 05:40:57;;;;;;;22.98;12.32;;;;;;;;;;5053185;28;20075;-70
2022/01/25 05:46:35;;;;;;;;;;;;;;;;;;5055733;28;20033;-70
2022/01/25 05:48:48;;;;;;;20.30;11.25;;;;;;;;;;5050275;28;20407;-70
2022/01/25 05:51:13;;;;;;;25.17;11.38;;;;;;;;;;5035391;28;20053;-70
2022/01/25 05:53:42;;;;;;;21.63;11.93;;;;;;;;;;5051110;28;20118;-70
2022/01/25 05:56:08;;;;;;;24.70;12.13;;;;;;;;;;5058899;28;20047;-70
2022/01/25 05:58:33;;;;;;;24.75;12.35;;;;;;;;;;5033154;28;20025;-70
2022/01/25 06:00:58;;;;;;;24.48;12.63;;;;;;;;;;5034772;28;20032;-70
2022/01/25 06:03:24;;;;;;;23.92;12.20;;;;;;;;;;5031761;28;20103;-70
2022/01/25 06:05:49;;;;;;;23.15;11.52;;;;;;;;;;5053300;28;20044;-70
2022/01/25 06:08:14;;;;;;;20.67;10.95;;;;;;;;;;5053468;28;20146;-70
2022/01/25 06:10:40;;;;;;;23.92;11.40;;;;;;;;;;5040146;28;20460;-70
2022/01/25 06:13:05;;;;;;;20.02;10.50;;;;;;;;;;5053238;28;20614;-70
2022/01/25 06:15:31;;;;;;;23.80;11.25;;;;;;;;;;5056603;28;20115;-70
2022/01/25 06:17:56;;;;;;;20.60;11.57;;;;;;;;;;5032996;28;20029;-70
2022/01/25 06:20:21;;;;;;;20.25;10.25;;;;;;;;;;5053641;28;20123;-70
2022/01/25 06:22:47;;;;;;;19.35;10.77;;;;;;;;;;5052518;28;20068;-70
2022/01/25 06:25:12;;;;;;;18.05;10.10;;;;;;;;;;5036751;28;20023;-70
2022/01/25 06:27:39;;;;;;;23.23;10.82;;;;;;;;;;5054072;28;20021;-70
2022/01/25 06:30:10;;;;;;;23.20;11.43;;;;;;;;;;5031407;28;20090;-70
2022/01/25 06:32:35;;;;;;;25.13;11.48;;;;;;;;;;5019642;28;20239;-70
2022/01/25 06:35:01;;;;;;;22.50;11.48;;;;;;;;;;5036382;28;20561;-70
2022/01/25 06:37:26;;;;;;;23.85;11.23;;;;;;;;;;5052051;28;20032;-70
2022/01/25 06:39:52;;;;;;;21.70;10.70;;;;;;;;;;5050542;28;20021;-70
2022/01/25 06:42:17;;;;;;;26.63;10.32;;;;;;;;;;5055848;28;20394;-70
2022/01/25 06:44:42;;;;;;;19.10;10.05;;;;;;;;;;5050337;28;20027;-70
2022/01/25 06:47:08;;;;;;;24.70;11.68;;;;;;;;;;5037175;28;20116;-70
2022/01/25 06:49:33;;;;;;;18.48;9.75;;;;;;;;;;5051978;28;20052;-70
2022/01/25 06:51:59;;;;;;;21.70;10.80;;;;;;;;;;5019632;28;20055;-70
2022/01/25 06:54:24;;;;;;;20.20;10.23;;;;;;;;;;5038776;28;20031;-70
2022/01/25 06:56:50;;;;;;;21.60;9.75;;;;;;;;;;5015679;28;20398;-70
2022/01/25 06:59:15;;;;;;;21.88;10.50;;;;;;;;;;5032978;28;20483;-70
2022/01/25 07:01:41;;;;;;;22.30;10.75;;;;;;;;;;5035604;28;20037;-70
2022/01/25 07:04:06;;;;;;;26.98;10.20;;;;;;;;;;5034099;28;20041;-71
2022/01/25 07:06:31;;;;;;;18.55;10.32;;;;;;;;;;5035068;28;20029;-70
2022/01/25 07:08:57;;;;;;;24.17;10.32;;;;;;;;;;5032988;28;20029;-70
2022/01/25 07:11:23;;;;;;;19.88;10.48;;;;;;;;;;5032344;28;20024;-70
2022/01/25 07:13:48;;;;;;;22.25;10.45;;;;;;;;;;5033074;28;20123;-70
2022/01/25 07:16:14;;;;;;;20.35;10.23;;;;;;;;;;5049122;28;20029;-70
2022/01/25 07:18:39;;;;;;;19.38;10.52;;;;;;;;;;5052751;28;20032;-70
2022/01/25 07:21:04;;;;;;;23.45;10.68;;;;;;;;;;5036488;28;20092;-70
2022/01/25 07:23:30;;;;;;;16.75;9.63;;;;;;;;;;5052777;28;20031;-70
2022/01/25 07:25:55;;;;;;;19.60;9.95;;;;;;;;;;5050649;28;20111;-70
2022/01/25 07:28:20;;;;;;;20.98;10.43;;;;;;;;;;5035262;28;20467;-70
2022/01/25 07:30:46;;;;;;;17.77;9.55;;;;;;;;;;5028844;28;20069;-70
2022/01/25 07:33:11;;;;;;;16.83;9.60;;;;;;;;;;5050427;28;20021;-70
2022/01/25 07:35:37;;;;;;;17.20;9.93;;;;;;;;;;5035678;28;20122;-70
2022/01/25 07:38:02;;;;;;;16.52;9.40;;;;;;;;;;5032927;28;20078;-70
2022/01/25 07:40:28;;;;;;;18.25;9.52;;;;;;;;;;5033096;28;20098;-70
2022/01/25 07:42:53;;;;;;;17.02;8.93;;;;;;;;;;5034679;28;20021;-70
2022/01/25 07:45:18;;;;;;;15.90;9.20;;;;;;;;;;5051557;28;20017;-70
2022/01/25 07:47:44;;;;;;;19.77;10.80;;;;;;;;;;5031360;28;20442;-70
2022/01/25 07:50:09;;;;;;;20.35;10.23;;;;;;;;;;5032717;28;20020;-70
2022/01/25 07:52:35;;;;;;;24.23;11.00;;;;;;;;;;5052704;28;20086;-70
2022/01/25 07:55:00;;;;;;;22.60;11.60;;;;;;;;;;5050411;28;20451;-70
2022/01/25 07:57:25;;;;;;;22.70;11.45;;;;;;;;;;5034975;28;20029;-70
2022/01/25 07:59:51;;;;;;;30.60;13.10;;;;;;;;;;5047937;28;20055;-70
2022/01/25 08:02:17;;;;;;;25.42;11.90;;;;;;;;;;5032288;28;20128;-70
2022/01/25 08:04:42;;;;;;;34.40;13.75;;;;;;;;;;5050775;28;20017;-70
2022/01/25 08:07:07;;;;;;;23.42;12.52;;;;;;;;;;5048974;28;20017;-70
2022/01/25 08:09:33;;;;;;;22.98;12.43;;;;;;;;;;5031946;28;20021;-70
2022/01/25 08:11:58;;;;;;;21.10;11.48;;;;;;;;;;5032249;28;20112;-70
2022/01/25 08:14:23;;;;;;;20.25;10.63;;;;;;;;;;5052688;28;20096;-71
2022/01/25 08:16:50;;;;;;;24.42;10.90;;;;;;;;;;5051851;28;20070;-70
2022/01/25 08:19:15;;;;;;;23.35;10.27;;;;;;;;;;5038062;28;20017;-70
2022/01/25 08:21:41;;;;;;;29.75;12.02;;;;;;;;;;5040500;28;20446;-70
2022/01/25 08:24:07;;;;;;;25.10;12.10;;;;;;;;;;5047962;28;20437;-70
2022/01/25 08:26:32;;;;;;;21.42;11.52;;;;;;;;;;5033897;28;20056;-70
2022/01/25 08:28:58;;;;;;;20.52;11.23;;;;;;;;;;5039390;28;20030;-70
2022/01/25 08:31:23;;;;;;;21.45;11.77;;;;;;;;;;5034632;28;20040;-70
2022/01/25 08:33:48;;;;;;;28.77;12.60;;;;;;;;;;5053971;28;20024;-70
2022/01/25 08:36:14;;;;;;;33.10;17.05;;;;;;;;;;5036145;28;20100;-70
2022/01/25 08:38:39;;;;;;;24.85;12.20;;;;;;;;;;5056043;28;20121;-70
2022/01/25 08:41:06;;;;;;;23.05;11.43;;;;;;;;;;5037621;28;20084;-70
2022/01/25 08:43:33;;;;;;;23.70;11.43;;;;;;;;;;5038672;28;20494;-70
2022/01/25 08:45:58;;;;;;;21.70;12.02;;;;;;;;;;5036366;28;20033;-70
2022/01/25 08:48:23;;;;;;;25.45;12.23;;;;;;;;;;5062128;28;20259;-70
2022/01/25 08:50:49;;;;;;;23.10;11.45;;;;;;;;;;5056363;28;20033;-70
2022/01/25 08:53:14;;;;;;;27.27;12.57;;;;;;;;;;5061479;28;20395;-70
2022/01/25 08:55:39;;;;;;;28.48;12.60;;;;;;;;;;5054667;28;20471;-69
2022/01/25 08:58:05;;;;;;;23.70;12.57;;;;;;;;;;5040283;28;20048;-69
2022/01/25 09:00:30;;;;;;;22.70;12.90;;;;;;;;;;5021612;28;20025;-69
2022/01/25 09:02:55;;;;;;;31.40;12.82;;;;;;;;;;5052358;28;20100;-69
2022/01/25 09:05:21;;;;;;;24.08;12.18;;;;;;;;;;5052954;28;20066;-69
2022/01/25 09:07:46;;;;;;;27.38;12.30;;;;;;;;;;5053722;28;20086;-69
2022/01/25 09:10:12;;;;;;;26.40;13.25;;;;;;;;;;5037151;28;20138;-69
2022/01/25 09:12:37;;;;;;;25.83;13.05;;;;;;;;;;5034078;28;20096;-69
2022/01/25 09:15:03;;;;;;;31.75;14.32;;;;;;;;;;5034760;28;20025;-69
2022/01/25 09:17:28;;;;;;;30.23;13.63;;;;;;;;;;5032611;28;20055;-69
2022/01/25 09:19:54;;;;;;;25.27;13.40;;;;;;;;;;5047664;28;20024;-69
2022/01/25 09:22:19;;;;;;;23.80;12.13;;;;;;;;;;5033908;28;20386;-69
2022/01/25 09:24:45;;;;;;;26.55;12.70;;;;;;;;;;5054176;28;20025;-69
2022/01/25 09:27:11;;;;;;;21.67;11.85;;;;;;;;;;5054438;28;20049;-69
2022/01/25 09:29:36;;;;;;;23.92;12.75;;;;;;;;;;5054043;28;20035;-69
2022/01/25 09:32:02;;;;;;;22.58;13.10;;;;;;;;;;5051494;28;20040;-69
2022/01/25 09:34:28;;;;;;;26.45;13.07;;;;;;;;;;5052258;28;20052;-69
2022/01/25 09:36:53;;;;;;;27.35;13.98;;;;;;;;;;5036282;28;20040;-69
2022/01/25 09:39:19;;;;;;;27.45;14.30;;;;;;;;;;5037195;28;20029;-69
2022/01/25 09:41:45;;;;;;;28.55;13.02;;;;;;;;;;5034498;28;20028;-69
2022/01/25 09:44:10;;;;;;;21.13;11.25;;;;;;;;;;5053924;28;20119;-69
2022/01/25 09:46:36;;;;;;;21.85;11.07;;;;;;;;;;5052123;28;20036;-69
2022/01/25 09:49:01;;;;;;;18.73;11.23;;;;;;;;;;5020205;28;20032;-70
2022/01/25 09:51:27;;;;;;;23.02;10.73;;;;;;;;;;5051234;28;20094;-70
2022/01/25 09:53:52;;;;;;;19.70;10.30;;;;;;;;;;5016669;28;20133;-70
2022/01/25 09:56:17;;;;;;;15.85;9.35;;;;;;;;;;5034158;28;20431;-70
2022/01/25 09:58:44;;;;;;;17.92;9.40;;;;;;;;;;5033286;28;20033;-70
2022/01/25 10:01:10;;;;;;;14.82;7.90;;;;;;;;;;5051011;28;20045;-70
2022/01/25 10:03:39;;;;;;;15.75;9.13;;;;;;;;;;5035149;28;20409;-70
2022/01/25 10:06:13;;;;;;;15.93;9.05;;;;;;;;;;5055621;28;20037;-70
2022/01/25 10:08:38;;;;;;;12.77;8.90;;;;;;;;;;5034992;28;20027;-70
2022/01/25 10:11:06;;;;;;;15.43;8.80;;;;;;;;;;5001806;28;20420;-70
2022/01/25 10:13:33;;;;;;;19.80;10.05;;;;;;;;;;5017842;28;20028;-70
2022/01/25 10:16:09;;;;;;;16.27;9.65;;;;;;;;;;5051160;28;20112;-70
2022/01/25 10:18:41;;;;;;;19.13;10.23;;;;;;;;;;5035433;28;20036;-70
2022/01/25 10:21:21;;;;;;;18.55;10.35;;;;;;;;;;5053424;28;20070;-70
2022/01/25 10:24:01;;;;;;;18.98;10.27;;;;;;;;;;5051819;28;20047;-70
2022/01/25 10:26:39;;;;;;;18.38;11.25;;;;;;;;;;5051897;28;20513;-70
2022/01/25 10:29:05;;;;;;;20.08;11.65;;;;;;;;;;5033711;28;20033;-70
2022/01/25 10:31:44;;;;;;;20.27;11.18;;;;;;;;;;5032194;28;20098;-70
2022/01/25 10:34:10;;;;;;;16.67;10.32;;;;;;;;;;5052537;28;20032;-70
2022/01/25 10:36:42;;;;;;;16.70;10.05;;;;;;;;;;5052249;28;20017;-69
2022/01/25 10:39:07;;;;;;;18.67;10.93;;;;;;;;;;5017058;28;20062;-70
2022/01/25 10:41:33;;;;;;;18.60;10.82;;;;;;;;;;5050122;28;20028;-70
2022/01/25 10:43:58;;;;;;;22.10;10.60;;;;;;;;;;5017030;28;20074;-70
2022/01/25 10:46:28;;;;;;;18.48;11.45;;;;;;;;;;5051639;28;20086;-70
2022/01/25 10:48:54;;;;;;;18.48;11.38;;;;;;;;;;5051950;28;20078;-70
2022/01/25 10:51:28;;;;;;;18.90;11.45;;;;;;;;;;5033570;28;20060;-70
2022/01/25 10:54:13;;;;;;;18.88;11.27;;;;;;;;;;5050687;28;20033;-70
2022/01/25 10:56:43;;;;;;;19.83;11.18;;;;;;;;;;5032316;28;20134;-70
2022/01/25 10:59:11;;;;;;;21.88;10.57;;;;;;;;;;5050588;28;20037;-70
2022/01/25 11:01:38;;;;;;;17.13;10.77;;;;;;;;;;5031401;28;20045;-70
2022/01/25 11:04:06;;;;;;;18.48;11.05;;;;;;;;;;5017775;28;20127;-70
2022/01/25 11:06:32;;;;;;;20.33;11.55;;;;;;;;;;5031598;28;20017;-70
2022/01/25 11:09:00;;;;;;;17.15;10.55;;;;;;;;;;5031960;28;20036;-70
2022/01/25 11:11:29;;;;;;;17.73;10.38;;;;;;;;;;5049021;28;20036;-70
2022/01/25 11:13:56;;;;;;;15.75;9.40;;;;;;;;;;5031997;28;20679;-70
2022/01/25 11:16:22;;;;;;;14.32;9.02;;;;;;;;;;5051318;28;20021;-70
2022/01/25 11:18:47;;;;;;;13.85;8.68;;;;;;;;;;5014745;28;20044;-70
2022/01/25 11:21:12;;;;;;;13.65;8.18;;;;;;;;;;5049078;28;20533;-70
2022/01/25 11:23:39;;;;;;;11.02;7.25;;;;;;;;;;5013611;28;20110;-70
2022/01/25 11:26:06;;;;;;;12.23;6.82;;;;;;;;;;5013462;28;20032;-70
2022/01/25 11:28:32;;;;;;;8.60;6.18;;;;;;;;;;5048474;28;20037;-70
2022/01/25 11:31:01;;;;;;;7.88;5.50;;;;;;;;;;5029260;28;20037;-70
2022/01/25 11:33:26;;;;;;;9.35;5.70;;;;;;;;;;5031804;28;20089;-70
2022/01/25 11:35:52;;;;;;;6.82;5.07;;;;;;;;;;5030782;28;20045;-70
2022/01/25 11:38:30;;;;;;;8.40;5.55;;;;;;;;;;5014842;28;20043;-70
2022/01/25 11:40:56;;;;;;;9.40;5.32;;;;;;;;;;5050249;28;20068;-70
2022/01/25 11:43:21;;;;;;;8.15;5.10;;;;;;;;;;5049285;28;20483;-70
2022/01/25 11:45:48;;;;;;;11.32;5.60;;;;;;;;;;5049050;28;20021;-70
2022/01/25 11:48:13;;;;;;;5.30;4.40;;;;;;;;;;5032162;28;20029;-70
2022/01/25 11:50:41;;;;;;;6.88;4.95;;;;;;;;;;5032180;28;20106;-70
2022/01/25 11:53:11;;;;;;;8.15;4.78;;;;;;;;;;5049588;28;20062;-70
2022/01/25 11:55:55;;;;;;;10.25;5.78;;;;;;;;;;5014411;28;20074;-70
2022/01/25 11:58:23;;;;;;;9.88;5.45;;;;;;;;;;5031479;28;20069;-70
2022/01/25 12:00:51;;;;;;;10.60;5.78;;;;;;;;;;5047235;28;20048;-70
2022/01/25 12:03:25;;;;;;;10.82;5.72;;;;;;;;;;5014413;28;20040;-70
2022/01/25 12:06:02;;;;;;;10.85;5.95;;;;;;;;;;5040886;28;20059;-70
2022/01/25 12:08:39;;;;;;;7.90;5.65;;;;;;;;;;5050021;28;20471;-70
2022/01/25 12:11:41;;;;;;;7.03;5.10;;;;;;;;;;5048866;28;20028;-70
2022/01/25 12:14:24;;;;;;;4.68;3.72;;;;;;;;;;5025408;28;20021;-70
2022/01/25 12:17:10;;;;;;;5.03;4.05;;;;;;;;;;5031866;28;20036;-70
2022/01/25 12:19:48;;;;;;;6.00;4.10;;;;;;;;;;5048590;28;20105;-70
2022/01/25 12:28:07;;;;;;;6.90;4.00;;;;;;;;;;5033538;28;20094;-70
2022/01/25 12:30:36;;;;;;;6.97;4.00;;;;;;;;;;5047564;28;20025;-71
2022/01/25 12:33:20;;;;;;;5.40;3.65;;;;;;;;;;5032534;28;20032;-71
2022/01/25 12:35:54;;;;;;;5.35;3.72;;;;;;;;;;5048562;28;20025;-71
2022/01/25 12:38:23;;;;;;;5.90;3.58;;;;;;;;;;5049205;28;20033;-70
2022/01/25 12:41:06;;;;;;;3.65;2.95;;;;;;;;;;5050763;28;20024;-70
2022/01/25 12:43:34;;;;;;;5.35;3.10;;;;;;;;;;5012366;28;20021;-70
2022/01/25 12:46:24;;;;;;;2.55;2.13;;;;;;;;;;5047963;28;20017;-70
2022/01/25 12:48:56;;;;;;;4.53;2.72;;;;;;;;;;5047370;28;20021;-70
2022/01/25 12:51:32;;;;;;;2.22;1.88;;;;;;;;;;5045561;28;20028;-70
2022/01/25 12:54:00;;;;;;;2.97;2.20;;;;;;;;;;5048121;28;20074;-70
2022/01/25 12:56:33;;;;;;;1.80;1.70;;;;;;;;;;5049471;28;20510;-70
2022/01/25 12:59:00;;;;;;;2.13;1.92;;;;;;;;;;5025571;28;20090;-70
2022/01/25 13:01:26;;;;;;;4.70;1.90;;;;;;;;;;5026995;28;20033;-70
2022/01/25 13:03:55;;;;;;;2.03;1.70;;;;;;;;;;5049555;28;20086;-70
2022/01/25 13:06:22;;;;;;;3.13;2.00;;;;;;;;;;5048815;28;20017;-70
2022/01/25 13:09:00;;;;;;;3.95;2.00;;;;;;;;;;5015499;28;20025;-70
2022/01/25 13:11:41;;;;;;;3.20;2.05;;;;;;;;;;5010953;28;20108;-70
2022/01/25 13:16:49;;;;;;;4.97;2.10;;;;;;;;;;5031086;28;20100;-70
2022/01/25 13:19:17;;;;;;;5.22;1.80;;;;;;;;;;5029069;28;20025;-71
2022/01/25 13:21:44;;;;;;;2.80;1.92;;;;;;;;;;5031065;28;20032;-70
2022/01/25 13:24:11;;;;;;;2.00;1.70;;;;;;;;;;5048833;28;20580;-71
2022/01/25 13:26:40;;;;;;;1.67;1.58;;;;;;;;;;5032134;28;20025;-71
2022/01/25 13:32:16;;;;;;;2.05;1.85;;;;;;;;;;5048539;28;20102;-71
2022/01/25 13:34:42;;;;;;;1.77;1.67;;;;;;;;;;5025165;28;20028;-71
2022/01/25 13:37:18;;;;;;;2.20;1.75;;;;;;;;;;5033635;28;20021;-71
2022/01/25 13:39:53;;;;;;;1.50;1.40;;;;;;;;;;5049086;28;20475;-71
2022/01/25 13:42:25;;;;;;;4.82;1.90;;;;;;;;;;5048733;28;20490;-71
2022/01/25 13:48:04;;;;;;;2.10;2.00;;;;;;;;;;5051360;28;20451;-71
2022/01/25 13:50:30;;;;;;;2.20;2.00;;;;;;;;;;5050523;28;20103;-71
2022/01/25 13:52:55;;;;;;;5.25;2.10;;;;;;;;;;5032605;28;20490;-71
2022/01/25 13:55:20;;;;;;;2.70;2.08;;;;;;;;;;5049611;28;20056;-71
2022/01/25 13:57:46;;;;;;;2.28;2.10;;;;;;;;;;5049835;28;20402;-69
2022/01/25 14:00:12;;;;;;;4.30;2.50;;;;;;;;;;5048092;28;20025;-69
2022/01/25 14:02:38;;;;;;;3.20;2.90;;;;;;;;;;5052752;28;20021;-69
2022/01/25 14:05:03;;;;;;;3.45;3.08;;;;;;;;;;5033311;28;20043;-69
2022/01/25 14:07:35;;;;;;;4.25;3.30;;;;;;;;;;5054343;28;20557;-69
2022/01/25 14:10:10;;;;;;;3.75;3.38;;;;;;;;;;5052185;28;20063;-69
2022/01/25 14:23:36;;;;;;;6.40;4.35;;;;;;;;;;5038537;28;20565;-69
2022/01/25 14:26:07;;;;;;;6.57;4.95;;;;;;;;;;5033718;28;20024;-69
2022/01/25 14:28:39;;;;;;;5.50;4.80;;;;;;;;;;5017731;28;20433;-69
2022/01/25 14:31:04;;;;;;;7.65;4.43;;;;;;;;;;5049925;28;20158;-69
2022/01/25 14:33:32;;;;;;;5.32;4.18;;;;;;;;;;5034635;28;20352;-69
2022/01/25 14:36:00;;;;;;;6.80;4.25;;;;;;;;;;5015584;28;20711;-69
2022/01/25 14:38:34;;;;;;;7.00;4.95;;;;;;;;;;5052913;28;20121;-69
2022/01/25 14:41:16;;;;;;;5.10;4.60;;;;;;;;;;5050750;28;20035;-71
2022/01/25 14:43:50;;;;;;;5.43;4.63;;;;;;;;;;5051213;28;20070;-70
2022/01/25 14:46:19;;;;;;;5.63;4.60;;;;;;;;;;5034164;28;20017;-70
2022/01/25 14:48:54;;;;;;;5.80;4.90;;;;;;;;;;5032589;28;20032;-70
2022/01/25 14:51:19;;;;;;;8.27;5.45;;;;;;;;;;5016773;28;20028;-70
2022/01/25 14:53:44;;;;;;;7.53;5.43;;;;;;;;;;5049513;28;20029;-70
2022/01/25 14:56:12;;;;;;;11.00;5.93;;;;;;;;;;5049515;28;20391;-70
2022/01/25 15:01:16;;;;;;;9.40;6.50;;;;;;;;;;5032192;28;20037;-70
2022/01/25 15:03:44;;;;;;;15.23;7.78;;;;;;;;;;5049242;28;20060;-71
2022/01/25 15:06:09;;;;;;;11.90;7.45;;;;;;;;;;5016076;28;20021;-70
2022/01/25 15:08:35;;;;;;;10.88;6.93;;;;;;;;;;5047453;28;20032;-70
2022/01/25 15:11:01;;;;;;;10.15;5.70;;;;;;;;;;5048275;28;20036;-70
2022/01/25 15:13:28;;;;;;;9.35;5.88;;;;;;;;;;5047888;28;20483;-70
2022/01/25 15:15:55;;;;;;;17.75;9.15;;;;;;;;;;5014283;28;20029;-70
2022/01/25 15:18:32;;;;;;;26.52;10.20;;;;;;;;;;5029930;28;20510;-70
2022/01/25 15:20:59;;;;;;;12.05;6.30;;;;;;;;;;5048532;28;20105;-71
2022/01/25 15:23:25;;;;;;;10.52;6.38;;;;;;;;;;5013594;28;20119;-71
2022/01/25 15:25:56;;;;;;;7.72;5.30;;;;;;;;;;5047012;28;20479;-71
2022/01/25 15:28:35;;;;;;;7.90;5.18;;;;;;;;;;5029577;28;20021;-71
2022/01/25 15:31:00;;;;;;;7.50;4.97;;;;;;;;;;5029975;28;20032;-71
2022/01/25 15:33:25;;;;;;;11.18;5.53;;;;;;;;;;5048112;28;20090;-71
2022/01/25 15:35:50;;;;;;;7.60;4.63;;;;;;;;;;5047545;28;20084;-71
2022/01/25 15:38:16;;;;;;;7.82;5.30;;;;;;;;;;5030491;28;20112;-71
2022/01/25 15:40:41;;;;;;;9.02;6.03;;;;;;;;;;5029863;28;20107;-71
2022/01/25 15:43:07;;;;;;;8.88;5.90;;;;;;;;;;5048757;28;20108;-71
2022/01/25 15:45:43;;;;;;;11.98;5.93;;;;;;;;;;5047438;28;20100;-70
2022/01/25 15:48:10;;;;;;;10.40;6.03;;;;;;;;;;5008169;28;20024;-70
2022/01/25 15:50:35;;;;;;;21.17;11.55;;;;;;;;;;5047062;28;20032;-70
2022/01/25 15:53:01;;;;;;;30.95;14.95;;;;;;;;;;5047132;28;20086;-70
2022/01/25 15:55:26;;;;;;;23.17;11.85;;;;;;;;;;5028377;28;20053;-70
2022/01/25 15:57:51;;;;;;;18.70;9.95;;;;;;;;;;5046024;28;20115;-71
2022/01/25 16:00:17;;;;;;;13.45;7.75;;;;;;;;;;5027359;28;20039;-71
2022/01/25 16:02:42;;;;;;;12.85;6.68;;;;;;;;;;5012183;28;20028;-71
2022/01/25 16:05:09;;;;;;;10.65;7.10;;;;;;;;;;5029242;28;20515;-71
2022/01/25 16:07:35;;;;;;;10.20;6.45;;;;;;;;;;5029383;28;20036;-71
2022/01/25 16:10:00;;;;;;;12.13;7.35;;;;;;;;;;5047345;28;20021;-71
2022/01/25 16:12:25;;;;;;;13.65;6.72;;;;;;;;;;5046965;28;20021;-71
2022/01/25 16:14:51;;;;;;;12.77;7.43;;;;;;;;;;5047253;28;20479;-71
2022/01/25 16:17:16;;;;;;;12.85;7.63;;;;;;;;;;5029968;28;20037;-71
2022/01/25 16:19:42;;;;;;;13.57;8.27;;;;;;;;;;5029823;28;20415;-71
2022/01/25 16:22:07;;;;;;;13.88;7.80;;;;;;;;;;5012155;28;20025;-71
2022/01/25 16:24:33;;;;;;;17.50;9.10;;;;;;;;;;5027473;28;20052;-70
2022/01/25 16:26:58;;;;;;;13.73;8.43;;;;;;;;;;5029960;28;20029;-70
2022/01/25 16:29:24;;;;;;;13.07;7.85;;;;;;;;;;5048131;28;20025;-70
2022/01/25 16:31:49;;;;;;;16.27;8.52;;;;;;;;;;5045894;28;20037;-71
2022/01/25 16:34:15;;;;;;;14.80;8.98;;;;;;;;;;5011155;28;20020;-70